BGBW

Narsarsuaq Airport

Narsarsuaq, Greenland
METAR BGBW 201450Z 05013KT 9999 FEW030 SCT100 BKN140 M13/M21 Q1005
Observed Flight Rules
Feb-20 @ 14:50 UTC (5 hours ago) Visual Flight Rules
Wind Visibility Clouds
50° at 13 knots 10,000+ meters
  • Few at 3,000' AGL
  • Scattered at 10,000' AGL
  • Broken at 14,000' AGL
Temperatures Readings
Current -13°C / 9°F
Dewpoint -21°C / -6°F
Humidity 51%
Altimeter 29.68" Hg
Pressure 1005 hPa
Elevation 26
METAR BGBW 201450Z 05013KT 9999 FEW030 SCT100 BKN140 M13/M21 Q1005
Observed Flight Rules
Feb-20 @ 14:50 UTC
(5 hours ago)
VFR
Wind Visibility
50° at 13 knots 10,000+ meters
Clouds
  • Few at 3,000' AGL
  • Scattered at 10,000' AGL
  • Broken at 14,000' AGL
Temperature Dewpoint
-13°C / 9°F -21°C / -6°F
Humidity Altimeter Pressure
51% 29.68" Hg 1005 hPa